createdAt,value
2022-12-27T00:00:29.320Z,1014.25
2022-12-27T00:01:29.283Z,1014.31
2022-12-27T00:02:29.390Z,1014.32
2022-12-27T00:03:29.269Z,1014.29
2022-12-27T00:04:29.248Z,1014.31
2022-12-27T00:05:29.258Z,1014.30
2022-12-27T00:06:29.225Z,1014.38
2022-12-27T00:07:29.218Z,1014.34
2022-12-27T00:08:29.219Z,1014.29
2022-12-27T00:09:29.201Z,1014.30
2022-12-27T00:10:29.189Z,1014.32
2022-12-27T00:11:29.178Z,1014.34
2022-12-27T00:12:29.165Z,1014.36
2022-12-27T00:13:29.151Z,1014.39
2022-12-27T00:14:29.145Z,1014.37
2022-12-27T00:15:29.135Z,1014.40
2022-12-27T00:16:29.150Z,1014.36
2022-12-27T00:17:29.118Z,1014.37
2022-12-27T00:18:29.091Z,1014.45
2022-12-27T00:19:29.108Z,1014.46
2022-12-27T00:20:29.077Z,1014.41
2022-12-27T00:21:29.062Z,1014.41
2022-12-27T00:22:29.048Z,1014.40
2022-12-27T00:23:29.041Z,1014.47
2022-12-27T00:24:29.060Z,1014.38
2022-12-27T00:25:29.022Z,1014.40
2022-12-27T00:26:29.006Z,1014.36
2022-12-27T00:27:29.003Z,1014.41
2022-12-27T00:28:28.983Z,1014.45
2022-12-27T00:29:28.990Z,1014.40
2022-12-27T00:30:28.961Z,1014.42
2022-12-27T00:31:28.980Z,1014.41
2022-12-27T00:32:28.941Z,1014.48
2022-12-27T00:33:28.932Z,1014.47
2022-12-27T00:34:28.927Z,1014.43
2022-12-27T00:35:28.915Z,1014.36
2022-12-27T00:36:28.900Z,1014.42
2022-12-27T00:37:28.890Z,1014.32
2022-12-27T00:38:28.876Z,1014.37
2022-12-27T00:39:28.890Z,1014.39
2022-12-27T00:40:28.853Z,1014.38
2022-12-27T00:41:28.865Z,1014.35
2022-12-27T00:42:28.830Z,1014.45
2022-12-27T00:43:28.829Z,1014.47
2022-12-27T00:44:28.819Z,1014.39
2022-12-27T00:45:28.837Z,1014.35
2022-12-27T00:46:28.795Z,1014.46
2022-12-27T00:47:28.781Z,1014.50
2022-12-27T00:48:28.764Z,1014.53
2022-12-27T00:49:28.770Z,1014.54
2022-12-27T00:50:28.785Z,1014.58
2022-12-27T00:51:28.745Z,1014.50
2022-12-27T00:52:28.728Z,1014.54
2022-12-27T00:53:28.716Z,1014.48
2022-12-27T00:54:28.711Z,1014.59
2022-12-27T00:55:28.696Z,1014.56
2022-12-27T00:56:28.680Z,1014.54
2022-12-27T00:57:28.677Z,1014.55
2022-12-27T00:58:28.662Z,1014.64
2022-12-27T00:59:28.669Z,1014.72
2022-12-27T01:00:28.641Z,1014.65
2022-12-27T01:01:28.811Z,1014.55
2022-12-27T01:02:28.619Z,1014.55
2022-12-27T01:03:28.626Z,1014.63
2022-12-27T01:04:28.604Z,1014.65
2022-12-27T01:05:28.589Z,1014.54
2022-12-27T01:06:28.570Z,1014.56
2022-12-27T01:07:28.565Z,1014.66
2022-12-27T01:08:28.553Z,1014.71
2022-12-27T01:09:28.550Z,1014.79
2022-12-27T01:10:28.530Z,1014.77
2022-12-27T01:11:28.537Z,1014.72
2022-12-27T01:12:28.512Z,1014.67
2022-12-27T01:13:28.499Z,1014.67
2022-12-27T01:14:28.500Z,1014.70
2022-12-27T01:15:28.481Z,1014.73
2022-12-27T01:16:28.506Z,1014.74
2022-12-27T01:17:28.454Z,1014.70
2022-12-27T01:18:28.440Z,1014.64
2022-12-27T01:19:28.467Z,1014.72
2022-12-27T01:20:28.428Z,1014.68
2022-12-27T01:21:28.413Z,1014.69
2022-12-27T01:22:28.400Z,1014.73
2022-12-27T01:23:28.445Z,1014.63
2022-12-27T01:24:28.382Z,1014.68
2022-12-27T01:25:28.367Z,1014.63
2022-12-27T01:26:28.349Z,1014.71
2022-12-27T01:27:28.346Z,1014.75
2022-12-27T01:28:28.330Z,1014.68
2022-12-27T01:29:28.347Z,1014.75
2022-12-27T01:30:28.323Z,1014.72
2022-12-27T01:31:28.459Z,1014.72
2022-12-27T01:32:28.289Z,1014.73
2022-12-27T01:33:28.284Z,1014.78
2022-12-27T01:34:28.292Z,1014.79
2022-12-27T01:35:28.264Z,1014.76
2022-12-27T01:36:28.259Z,1014.74
2022-12-27T01:37:28.232Z,1014.78
2022-12-27T01:38:28.227Z,1014.80
2022-12-27T01:39:28.222Z,1014.81
2022-12-27T01:40:28.216Z,1014.82
2022-12-27T01:41:28.195Z,1014.91
2022-12-27T01:42:28.183Z,1014.96
2022-12-27T01:43:28.166Z,1014.97
2022-12-27T01:44:28.165Z,1014.94
2022-12-27T01:45:28.176Z,1014.93
2022-12-27T01:46:28.143Z,1015.01
2022-12-27T01:47:28.123Z,1014.96
2022-12-27T01:48:28.121Z,1014.96
2022-12-27T01:49:28.102Z,1014.98
2022-12-27T01:50:28.105Z,1015.03
2022-12-27T01:51:28.079Z,1015.04
2022-12-27T01:52:28.074Z,1015.06
2022-12-27T01:53:28.056Z,1015.09
2022-12-27T01:54:28.051Z,1015.10
2022-12-27T01:55:28.062Z,1015.13
2022-12-27T01:56:28.031Z,1015.13
2022-12-27T01:57:28.015Z,1015.10
2022-12-27T01:58:28.008Z,1015.17
2022-12-27T01:59:27.992Z,1015.12
2022-12-27T02:00:27.993Z,1015.12
2022-12-27T02:01:28.157Z,1015.12
2022-12-27T02:02:28.044Z,1015.23
2022-12-27T02:03:27.949Z,1015.24
2022-12-27T02:04:27.942Z,1015.17
2022-12-27T02:05:27.944Z,1015.17
2022-12-27T02:06:27.936Z,1015.21
2022-12-27T02:07:27.905Z,1015.15
2022-12-27T02:08:27.912Z,1015.13
2022-12-27T02:09:27.888Z,1015.10
2022-12-27T02:10:27.887Z,1015.16
2022-12-27T02:11:27.864Z,1015.08
2022-12-27T02:12:27.855Z,1015.04
2022-12-27T02:13:27.838Z,1015.00
2022-12-27T02:14:28.573Z,1015.01
2022-12-27T02:15:27.825Z,1015.06
2022-12-27T02:16:27.845Z,1015.04
2022-12-27T02:17:27.798Z,1015.01
2022-12-27T02:18:27.793Z,1014.96
2022-12-27T02:19:27.774Z,1015.00
2022-12-27T02:20:27.777Z,1014.97
2022-12-27T02:21:27.753Z,1014.95
2022-12-27T02:22:27.747Z,1014.98
2022-12-27T02:23:27.730Z,1014.99
2022-12-27T02:24:27.724Z,1015.00
2022-12-27T02:25:27.720Z,1014.91
2022-12-27T02:26:27.710Z,1015.00
2022-12-27T02:27:27.687Z,1015.03
2022-12-27T02:28:27.680Z,1014.98
2022-12-27T02:29:27.664Z,1015.05
2022-12-27T02:30:27.706Z,1015.05
2022-12-27T02:31:27.646Z,1014.98
2022-12-27T02:32:27.638Z,1014.99
2022-12-27T02:33:27.619Z,1014.98
2022-12-27T02:34:27.620Z,1014.96
2022-12-27T02:35:27.616Z,1014.96
2022-12-27T02:36:27.599Z,1014.94
2022-12-27T02:37:27.578Z,1014.87
2022-12-27T02:38:27.574Z,1014.92
2022-12-27T02:39:27.563Z,1015.01
2022-12-27T02:40:27.565Z,1015.03
2022-12-27T02:41:27.534Z,1014.99
2022-12-27T02:42:27.531Z,1015.00
2022-12-27T02:43:27.522Z,1015.04
2022-12-27T02:44:27.511Z,1014.98
2022-12-27T02:45:27.503Z,1014.91
2022-12-27T02:46:27.536Z,1014.94
2022-12-27T02:47:27.471Z,1014.94
2022-12-27T02:48:27.461Z,1014.85
2022-12-27T02:49:27.448Z,1014.82
2022-12-27T02:50:27.476Z,1014.88
2022-12-27T02:51:27.424Z,1014.81
2022-12-27T02:52:27.425Z,1014.82
2022-12-27T02:53:27.407Z,1014.74
2022-12-27T02:54:27.398Z,1014.86
2022-12-27T02:55:27.419Z,1014.95
2022-12-27T02:56:27.385Z,1014.93
2022-12-27T02:57:27.361Z,1014.91
2022-12-27T02:58:27.354Z,1014.89
2022-12-27T02:59:27.340Z,1014.77
2022-12-27T03:00:27.334Z,1014.86
2022-12-27T03:01:27.445Z,1014.86
2022-12-27T03:02:27.496Z,1014.95
2022-12-27T03:03:27.317Z,1014.95
2022-12-27T03:04:27.283Z,1014.91
2022-12-27T03:05:27.285Z,1014.84
2022-12-27T03:06:27.264Z,1014.96
2022-12-27T03:07:27.255Z,1014.89
2022-12-27T03:08:27.243Z,1014.96
2022-12-27T03:09:27.231Z,1015.03
2022-12-27T03:10:27.235Z,1015.03
2022-12-27T03:11:27.211Z,1014.98
2022-12-27T03:12:27.204Z,1014.90
2022-12-27T03:13:27.198Z,1014.88
2022-12-27T03:14:27.173Z,1014.83
2022-12-27T03:15:31.887Z,1014.86
2022-12-27T03:16:27.214Z,1014.92
2022-12-27T03:17:27.147Z,1014.85
2022-12-27T03:18:27.136Z,1014.83
2022-12-27T03:19:27.124Z,1014.86
2022-12-27T03:20:27.106Z,1014.82
2022-12-27T03:21:27.131Z,1014.81
2022-12-27T03:22:27.098Z,1014.79
2022-12-27T03:23:27.079Z,1014.83
2022-12-27T03:24:27.064Z,1014.87
2022-12-27T03:25:27.058Z,1014.73
2022-12-27T03:26:27.053Z,1014.83
2022-12-27T03:27:27.034Z,1014.86
2022-12-27T03:28:27.025Z,1014.88
2022-12-27T03:29:27.030Z,1014.90
2022-12-27T03:30:26.998Z,1014.89
2022-12-27T03:31:27.008Z,1014.92
2022-12-27T03:33:20.396Z,1014.97
2022-12-27T03:34:21.391Z,1014.99
2022-12-27T03:35:21.374Z,1014.98
2022-12-27T03:36:21.376Z,1014.97
2022-12-27T03:37:21.356Z,1014.96
2022-12-27T03:38:21.348Z,1015.00
2022-12-27T03:39:21.331Z,1015.02
2022-12-27T03:40:21.333Z,1015.04
2022-12-27T03:41:21.320Z,1015.03
2022-12-27T03:42:21.295Z,1015.03
2022-12-27T03:43:21.288Z,1015.07
2022-12-27T03:44:21.272Z,1015.16
2022-12-27T03:45:21.258Z,1014.97
2022-12-27T03:46:21.297Z,1015.04
2022-12-27T03:47:21.237Z,1015.08
2022-12-27T03:48:21.230Z,1015.08
2022-12-27T03:49:21.218Z,1015.03
2022-12-27T03:50:21.215Z,1015.03
2022-12-27T03:51:21.320Z,1015.09
2022-12-27T03:52:21.203Z,1015.07
2022-12-27T03:53:21.174Z,1015.07
2022-12-27T03:54:21.169Z,1014.97
2022-12-27T03:55:21.159Z,1015.11
2022-12-27T03:56:21.143Z,1015.11
2022-12-27T03:57:21.138Z,1015.10
2022-12-27T03:58:21.123Z,1015.20
2022-12-27T03:59:21.110Z,1015.13
2022-12-27T04:00:21.105Z,1015.16
2022-12-27T04:01:21.151Z,1015.15
2022-12-27T04:02:21.382Z,1015.18
2022-12-27T04:03:21.132Z,1015.23
2022-12-27T04:04:21.064Z,1015.27
2022-12-27T04:05:21.040Z,1015.15
2022-12-27T04:06:21.040Z,1015.11
2022-12-27T04:07:21.044Z,1015.16
2022-12-27T04:08:21.020Z,1015.16
2022-12-27T04:09:20.994Z,1015.30
2022-12-27T04:10:21.004Z,1015.19
2022-12-27T04:11:20.972Z,1015.18
2022-12-27T04:12:20.981Z,1015.15
2022-12-27T04:13:20.980Z,1015.16
2022-12-27T04:14:20.966Z,1015.18
2022-12-27T04:15:20.940Z,1015.12
2022-12-27T04:16:20.977Z,1015.20
2022-12-27T04:17:20.934Z,1015.14
2022-12-27T04:18:20.910Z,1015.18
2022-12-27T04:19:20.884Z,1015.17
2022-12-27T04:20:20.887Z,1015.16
2022-12-27T04:21:20.866Z,1015.23
2022-12-27T04:22:20.877Z,1015.25
2022-12-27T04:23:20.846Z,1015.25
2022-12-27T04:24:20.835Z,1015.23
2022-12-27T04:25:20.819Z,1015.23
2022-12-27T04:26:20.812Z,1015.28
2022-12-27T04:27:20.819Z,1015.21
2022-12-27T04:28:20.791Z,1015.29
2022-12-27T04:29:20.777Z,1015.34
2022-12-27T04:30:20.773Z,1015.47
2022-12-27T04:31:20.884Z,1015.45
2022-12-27T04:32:20.759Z,1015.43
2022-12-27T04:33:20.750Z,1015.51
2022-12-27T04:34:20.729Z,1015.46
2022-12-27T04:35:20.708Z,1015.56
2022-12-27T04:36:20.719Z,1015.51
2022-12-27T04:37:20.716Z,1015.55
2022-12-27T04:38:20.681Z,1015.54
2022-12-27T04:39:20.684Z,1015.56
2022-12-27T04:40:20.659Z,1015.56
2022-12-27T04:41:20.645Z,1015.55
2022-12-27T04:42:20.647Z,1015.58
2022-12-27T04:43:20.617Z,1015.60
2022-12-27T04:44:20.616Z,1015.58
2022-12-27T04:45:20.602Z,1015.52
2022-12-27T04:46:20.611Z,1015.50
2022-12-27T04:47:20.589Z,1015.53
2022-12-27T04:48:20.584Z,1015.56
2022-12-27T04:49:20.566Z,1015.54
2022-12-27T04:50:20.546Z,1015.52
2022-12-27T04:51:20.552Z,1015.52
2022-12-27T04:52:20.536Z,1015.51
2022-12-27T04:53:20.515Z,1015.47
2022-12-27T04:54:20.508Z,1015.51
2022-12-27T04:55:20.487Z,1015.49
2022-12-27T04:56:20.485Z,1015.51
2022-12-27T04:57:20.479Z,1015.50
2022-12-27T04:58:20.457Z,1015.40
2022-12-27T04:59:20.445Z,1015.54
2022-12-27T05:00:20.440Z,1015.51
2022-12-27T05:01:20.535Z,1015.48
2022-12-27T05:02:20.599Z,1015.50
2022-12-27T05:03:20.451Z,1015.55
2022-12-27T05:04:20.394Z,1015.58
2022-12-27T05:05:20.385Z,1015.51
2022-12-27T05:06:20.392Z,1015.52
2022-12-27T05:07:20.379Z,1015.53
2022-12-27T05:08:20.345Z,1015.58
2022-12-27T05:09:23.270Z,1015.61
2022-12-27T05:10:20.322Z,1015.70
2022-12-27T05:11:20.322Z,1015.71
2022-12-27T05:12:20.331Z,1015.75
2022-12-27T05:13:20.297Z,1015.77
2022-12-27T05:14:20.276Z,1015.75
2022-12-27T05:15:20.270Z,1015.75
2022-12-27T05:16:20.342Z,1015.75
2022-12-27T05:17:20.262Z,1015.76
2022-12-27T05:18:20.242Z,1015.77
2022-12-27T05:19:20.234Z,1015.77
2022-12-27T05:20:20.214Z,1015.77
2022-12-27T05:21:20.211Z,1015.75
2022-12-27T05:22:20.208Z,1015.78
2022-12-27T05:23:20.223Z,1015.84
2022-12-27T05:24:20.257Z,1015.71
2022-12-27T05:25:20.160Z,1015.80
2022-12-27T05:26:20.145Z,1015.80
2022-12-27T05:27:20.141Z,1015.78
2022-12-27T05:28:20.135Z,1015.87
2022-12-27T05:29:20.119Z,1015.68
2022-12-27T05:30:20.105Z,1015.83
2022-12-27T05:31:20.158Z,1015.88
2022-12-27T05:32:20.082Z,1015.79
2022-12-27T05:33:20.091Z,1015.83
2022-12-27T05:34:20.067Z,1015.74
2022-12-27T05:35:20.078Z,1015.84
2022-12-27T05:36:20.033Z,1015.78
2022-12-27T05:37:20.027Z,1015.82
2022-12-27T05:38:20.024Z,1015.82
2022-12-27T05:39:20.016Z,1015.90
2022-12-27T05:40:19.991Z,1015.87
2022-12-27T05:41:19.986Z,1015.99
2022-12-27T05:42:19.966Z,1016.01
2022-12-27T05:43:19.986Z,1015.97
2022-12-27T05:44:19.946Z,1015.97
2022-12-27T05:45:19.947Z,1016.02
2022-12-27T05:46:19.976Z,1015.99
2022-12-27T05:47:19.919Z,1015.98
2022-12-27T05:48:19.922Z,1016.04
2022-12-27T05:49:19.901Z,1016.05
2022-12-27T05:50:19.897Z,1016.00
2022-12-27T05:51:19.877Z,1016.05
2022-12-27T05:52:19.861Z,1016.11
2022-12-27T05:53:19.860Z,1016.07
2022-12-27T05:54:19.845Z,1016.03
2022-12-27T05:55:19.842Z,1016.00
2022-12-27T05:56:19.819Z,1016.02
2022-12-27T05:57:19.819Z,1016.07
2022-12-27T05:58:19.807Z,1016.01
2022-12-27T05:59:19.801Z,1016.02
2022-12-27T06:00:19.780Z,1016.03
2022-12-27T06:01:19.777Z,1016.10
2022-12-27T06:02:19.912Z,1016.09
2022-12-27T06:03:19.808Z,1016.12
2022-12-27T06:04:19.731Z,1016.16
2022-12-27T06:05:19.728Z,1016.25
2022-12-27T06:06:19.725Z,1016.18
2022-12-27T06:07:19.703Z,1016.28
2022-12-27T06:08:19.694Z,1016.24
2022-12-27T06:09:19.692Z,1016.28
2022-12-27T06:10:19.682Z,1016.27
2022-12-27T06:11:19.657Z,1016.27
2022-12-27T06:12:19.666Z,1016.26
2022-12-27T06:13:19.642Z,1016.33
2022-12-27T06:14:19.618Z,1016.38
2022-12-27T06:15:19.620Z,1016.34
2022-12-27T06:16:19.649Z,1016.32
2022-12-27T06:17:19.586Z,1016.38
2022-12-27T06:18:19.583Z,1016.33
2022-12-27T06:19:19.565Z,1016.37
2022-12-27T06:20:19.554Z,1016.29
2022-12-27T06:21:19.579Z,1016.28
2022-12-27T06:22:19.530Z,1016.31
2022-12-27T06:23:19.531Z,1016.28
2022-12-27T06:24:19.514Z,1016.33
2022-12-27T06:25:19.503Z,1016.33
2022-12-27T06:26:19.485Z,1016.33
2022-12-27T06:27:19.491Z,1016.41
2022-12-27T06:28:19.472Z,1016.41
2022-12-27T06:29:19.457Z,1016.40
2022-12-27T06:30:19.447Z,1016.44
2022-12-27T06:31:19.511Z,1016.42
2022-12-27T06:32:19.422Z,1016.48
2022-12-27T06:33:19.436Z,1016.51
2022-12-27T06:34:19.397Z,1016.36
2022-12-27T06:35:19.390Z,1016.50
2022-12-27T06:36:19.378Z,1016.44
2022-12-27T06:37:19.366Z,1016.54
2022-12-27T06:38:19.379Z,1016.48
2022-12-27T06:39:19.349Z,1016.48
2022-12-27T06:40:19.340Z,1016.53
2022-12-27T06:41:19.331Z,1016.46
2022-12-27T06:42:19.315Z,1016.56
2022-12-27T06:43:19.320Z,1016.54
2022-12-27T06:44:19.310Z,1016.54
2022-12-27T06:45:19.277Z,1016.59
2022-12-27T06:46:19.308Z,1016.57
2022-12-27T06:47:19.262Z,1016.59
2022-12-27T06:48:19.267Z,1016.50
2022-12-27T06:49:19.252Z,1016.62
2022-12-27T06:50:19.233Z,1016.63
2022-12-27T06:51:19.216Z,1016.63
2022-12-27T06:52:19.207Z,1016.54
2022-12-27T06:53:19.197Z,1016.60
2022-12-27T06:54:19.196Z,1016.59
2022-12-27T06:55:19.169Z,1016.59
2022-12-27T06:56:19.164Z,1016.58
2022-12-27T06:57:19.178Z,1016.52
2022-12-27T06:58:19.151Z,1016.60
2022-12-27T06:59:19.134Z,1016.57
2022-12-27T07:00:19.150Z,1016.60
2022-12-27T07:01:19.282Z,1016.62
2022-12-27T07:02:19.222Z,1016.66
2022-12-27T07:03:19.209Z,1016.71
2022-12-27T07:04:19.086Z,1016.72
2022-12-27T07:05:19.058Z,1016.68
2022-12-27T07:06:19.069Z,1016.73
2022-12-27T07:07:19.048Z,1016.72
2022-12-27T07:08:19.036Z,1016.70
2022-12-27T07:09:19.038Z,1016.73
2022-12-27T07:10:19.015Z,1016.75
2022-12-27T07:11:18.993Z,1016.81
2022-12-27T07:12:18.990Z,1016.83
2022-12-27T07:13:18.971Z,1016.81
2022-12-27T07:14:18.994Z,1016.80
2022-12-27T07:15:18.959Z,1016.83
2022-12-27T07:16:18.964Z,1016.88
2022-12-27T07:17:18.939Z,1016.84
2022-12-27T07:18:18.930Z,1016.86
2022-12-27T07:19:18.926Z,1016.88
2022-12-27T07:20:18.909Z,1016.94
2022-12-27T07:21:18.909Z,1016.91
2022-12-27T07:22:18.895Z,1016.91
2022-12-27T07:23:19.541Z,1016.94
2022-12-27T07:24:18.863Z,1016.96
2022-12-27T07:25:18.855Z,1017.06
2022-12-27T07:26:18.838Z,1017.00
2022-12-27T07:27:18.831Z,1016.98
2022-12-27T07:28:18.815Z,1017.01
2022-12-27T07:29:18.815Z,1017.08
2022-12-27T07:30:18.787Z,1017.06
2022-12-27T07:31:18.882Z,1017.13
2022-12-27T07:32:18.791Z,1017.07
2022-12-27T07:33:18.779Z,1017.11
2022-12-27T07:34:18.772Z,1017.21
2022-12-27T07:35:18.736Z,1017.11
2022-12-27T07:36:18.736Z,1017.15
2022-12-27T07:37:18.724Z,1017.25
2022-12-27T07:38:18.714Z,1017.28
2022-12-27T07:39:18.702Z,1017.33
2022-12-27T07:40:18.690Z,1017.30
2022-12-27T07:41:18.669Z,1017.36
2022-12-27T07:42:18.672Z,1017.36
2022-12-27T07:43:18.649Z,1017.27
2022-12-27T07:44:18.650Z,1017.35
2022-12-27T07:45:18.624Z,1017.34
2022-12-27T07:46:18.741Z,1017.35
2022-12-27T07:47:18.606Z,1017.37
2022-12-27T07:48:18.600Z,1017.35
2022-12-27T07:49:18.595Z,1017.39
2022-12-27T07:50:18.581Z,1017.41
2022-12-27T07:51:18.572Z,1017.41
2022-12-27T07:52:18.556Z,1017.36
2022-12-27T07:53:18.538Z,1017.36
2022-12-27T07:54:18.543Z,1017.31
2022-12-27T07:55:18.520Z,1017.37
2022-12-27T07:56:25.236Z,1017.41
2022-12-27T07:57:18.516Z,1017.41
2022-12-27T07:58:18.489Z,1017.42
2022-12-27T07:59:18.484Z,1017.42
2022-12-27T08:00:18.472Z,1017.45
2022-12-27T08:01:18.600Z,1017.46
2022-12-27T08:02:18.556Z,1017.43
2022-12-27T08:03:18.513Z,1017.51
2022-12-27T08:04:18.439Z,1017.51
2022-12-27T08:05:22.836Z,1017.46
2022-12-27T08:06:18.410Z,1017.48
2022-12-27T08:07:18.396Z,1017.47
2022-12-27T08:08:18.374Z,1017.49
2022-12-27T08:09:18.380Z,1017.50
2022-12-27T08:10:18.366Z,1017.46
2022-12-27T08:11:18.352Z,1017.51
2022-12-27T08:12:18.344Z,1017.51
2022-12-27T08:13:18.327Z,1017.56
2022-12-27T08:14:18.343Z,1017.64
2022-12-27T08:15:18.312Z,1017.57
2022-12-27T08:16:18.327Z,1017.59
2022-12-27T08:17:18.279Z,1017.65
2022-12-27T08:18:18.295Z,1017.62
2022-12-27T08:19:18.258Z,1017.62
2022-12-27T08:20:18.276Z,1017.67
2022-12-27T08:21:18.233Z,1017.64
2022-12-27T08:22:18.244Z,1017.69
2022-12-27T08:23:18.218Z,1017.66
2022-12-27T08:24:18.208Z,1017.73
2022-12-27T08:25:18.198Z,1017.74
2022-12-27T08:26:18.189Z,1017.74
2022-12-27T08:27:18.171Z,1017.69
2022-12-27T08:28:18.167Z,1017.79
2022-12-27T08:29:18.157Z,1017.75
2022-12-27T08:30:18.151Z,1017.81
2022-12-27T08:31:18.243Z,1017.79
2022-12-27T08:32:18.119Z,1017.83
2022-12-27T08:33:18.106Z,1017.86
2022-12-27T08:34:18.104Z,1017.88
2022-12-27T08:35:50.801Z,1017.92
2022-12-27T08:37:18.064Z,1017.98
2022-12-27T08:38:18.053Z,1017.94
2022-12-27T08:39:18.037Z,1017.94
2022-12-27T08:40:18.039Z,1017.90
2022-12-27T08:41:18.028Z,1017.87
2022-12-27T08:42:18.029Z,1017.90
2022-12-27T08:43:18.004Z,1017.91
2022-12-27T08:44:17.994Z,1017.88
2022-12-27T08:45:17.980Z,1017.91
2022-12-27T08:46:17.989Z,1017.95
2022-12-27T08:47:17.959Z,1017.87
2022-12-27T08:48:18.009Z,1017.89
2022-12-27T08:49:17.929Z,1017.89
2022-12-27T08:50:17.939Z,1017.88
2022-12-27T08:51:30.000Z,1017.92
2022-12-27T08:52:17.916Z,1017.89
2022-12-27T08:53:17.887Z,1017.90
2022-12-27T08:54:17.899Z,1017.91
2022-12-27T08:55:17.876Z,1017.85
2022-12-27T08:56:17.876Z,1017.93
2022-12-27T08:57:17.849Z,1017.93
2022-12-27T08:58:17.840Z,1017.95
2022-12-27T08:59:17.827Z,1017.94
2022-12-27T09:00:17.821Z,1017.97
2022-12-27T09:01:17.885Z,1017.93
2022-12-27T09:02:17.912Z,1017.94
2022-12-27T09:03:17.864Z,1017.96
2022-12-27T09:04:17.769Z,1017.92
2022-12-27T09:05:17.770Z,1017.97
2022-12-27T09:06:17.750Z,1017.96
2022-12-27T09:07:17.733Z,1017.91
2022-12-27T09:08:17.724Z,1017.98
2022-12-27T09:09:17.712Z,1017.98
2022-12-27T09:10:17.707Z,1017.99
2022-12-27T09:11:17.718Z,1017.97
2022-12-27T09:12:17.685Z,1017.96
2022-12-27T09:13:17.665Z,1018.01
2022-12-27T09:14:17.672Z,1018.02
2022-12-27T09:15:17.661Z,1018.02
2022-12-27T09:16:17.690Z,1018.04
2022-12-27T09:17:17.635Z,1018.03
2022-12-27T09:18:17.678Z,1018.06
2022-12-27T09:19:17.606Z,1018.05
2022-12-27T09:20:17.598Z,1018.06
2022-12-27T09:21:17.599Z,1018.05
2022-12-27T09:22:17.580Z,1018.09
2022-12-27T09:23:17.566Z,1018.04
2022-12-27T09:24:17.588Z,1018.08
2022-12-27T09:25:17.573Z,1018.07
2022-12-27T09:26:17.554Z,1018.09
2022-12-27T09:27:17.523Z,1018.11
2022-12-27T09:28:17.509Z,1018.16
2022-12-27T09:29:17.523Z,1018.10
2022-12-27T09:30:17.494Z,1018.13
2022-12-27T09:31:17.574Z,1018.10
2022-12-27T09:32:17.480Z,1018.08
2022-12-27T09:33:23.485Z,1018.09
2022-12-27T09:34:17.443Z,1018.10
2022-12-27T09:35:17.432Z,1018.07
2022-12-27T09:36:17.445Z,1018.13
2022-12-27T09:37:17.411Z,1018.09
2022-12-27T09:38:17.396Z,1018.14
2022-12-27T09:39:17.393Z,1018.17
2022-12-27T09:40:17.384Z,1018.08
2022-12-27T09:41:40.833Z,1018.14
2022-12-27T09:43:25.388Z,1018.12
2022-12-27T09:44:17.338Z,1018.09
2022-12-27T09:45:17.323Z,1018.10
2022-12-27T09:46:17.351Z,1018.10
2022-12-27T09:47:17.316Z,1018.11
2022-12-27T09:48:17.283Z,1018.11
2022-12-27T09:49:17.276Z,1018.19
2022-12-27T09:50:17.261Z,1018.15
2022-12-27T09:51:17.266Z,1018.19
2022-12-27T09:52:17.250Z,1018.14
2022-12-27T09:53:17.267Z,1018.12
2022-12-27T09:54:17.218Z,1018.11
2022-12-27T09:55:17.230Z,1018.14
2022-12-27T09:56:17.192Z,1018.15
2022-12-27T09:57:20.150Z,1018.14
2022-12-27T09:58:17.176Z,1018.14
2022-12-27T09:59:17.167Z,1018.15
2022-12-27T10:00:17.158Z,1018.16
2022-12-27T10:01:17.273Z,1018.03
2022-12-27T10:02:17.275Z,1018.09
2022-12-27T10:03:17.127Z,1018.05
2022-12-27T10:04:17.144Z,1018.05
2022-12-27T10:05:21.520Z,1018.04
2022-12-27T10:06:17.129Z,1018.07
2022-12-27T10:07:17.091Z,1018.06
2022-12-27T10:08:17.064Z,1018.12
2022-12-27T10:09:17.061Z,1018.12
2022-12-27T10:10:17.040Z,1018.09
2022-12-27T10:11:17.033Z,1018.06
2022-12-27T10:12:17.028Z,1018.10
2022-12-27T10:13:17.013Z,1018.15
2022-12-27T10:14:16.995Z,1018.16
2022-12-27T10:15:16.995Z,1018.20
2022-12-27T10:16:17.014Z,1018.19
2022-12-27T10:17:16.975Z,1018.22
2022-12-27T10:18:16.972Z,1018.18
2022-12-27T10:19:16.954Z,1018.23
2022-12-27T10:20:16.944Z,1018.23
2022-12-27T10:21:16.928Z,1018.23
2022-12-27T10:22:16.918Z,1018.25
2022-12-27T10:23:16.914Z,1018.25
2022-12-27T10:24:16.890Z,1018.20
2022-12-27T10:25:16.877Z,1018.25
2022-12-27T10:26:16.861Z,1018.26
2022-12-27T10:27:16.868Z,1018.28
2022-12-27T10:28:16.842Z,1018.26
2022-12-27T10:29:16.832Z,1018.31
2022-12-27T10:30:16.825Z,1018.26
2022-12-27T10:31:16.849Z,1018.37
2022-12-27T10:32:16.820Z,1018.30
2022-12-27T10:33:16.787Z,1018.33
2022-12-27T10:34:16.784Z,1018.33
2022-12-27T10:35:16.766Z,1018.30
2022-12-27T10:36:16.750Z,1018.37
2022-12-27T10:37:16.754Z,1018.34
2022-12-27T10:38:16.733Z,1018.32
2022-12-27T10:39:16.725Z,1018.34
2022-12-27T10:40:16.707Z,1018.37
2022-12-27T10:41:16.708Z,1018.39
2022-12-27T10:42:16.695Z,1018.38
2022-12-27T10:43:16.680Z,1018.41
2022-12-27T10:44:16.663Z,1018.37
2022-12-27T10:45:16.657Z,1018.34
2022-12-27T10:46:16.704Z,1018.35
2022-12-27T10:47:16.641Z,1018.36
2022-12-27T10:48:16.617Z,1018.33
2022-12-27T10:49:21.042Z,1018.28
2022-12-27T10:50:16.714Z,1018.29
2022-12-27T10:51:16.591Z,1018.28
2022-12-27T10:52:16.588Z,1018.28
2022-12-27T10:53:16.566Z,1018.34
2022-12-27T10:54:16.551Z,1018.29
2022-12-27T10:55:16.545Z,1018.26
2022-12-27T10:56:16.529Z,1018.27
2022-12-27T10:57:16.539Z,1018.29
2022-12-27T10:58:16.508Z,1018.29
2022-12-27T10:59:16.504Z,1018.25
2022-12-27T11:00:16.513Z,1018.29
2022-12-27T11:01:16.614Z,1018.39
2022-12-27T11:02:16.642Z,1018.38
2022-12-27T11:03:16.456Z,1018.36
2022-12-27T11:04:20.685Z,1018.42
2022-12-27T11:05:16.440Z,1018.44
2022-12-27T11:06:16.419Z,1018.43
2022-12-27T11:07:16.422Z,1018.44
2022-12-27T11:08:16.400Z,1018.47
2022-12-27T11:09:16.390Z,1018.45
2022-12-27T11:10:16.458Z,1018.43
2022-12-27T11:11:16.365Z,1018.45
2022-12-27T11:12:16.367Z,1018.41
2022-12-27T11:13:16.354Z,1018.43
2022-12-27T11:14:16.345Z,1018.46
2022-12-27T11:15:16.327Z,1018.45
2022-12-27T11:16:16.342Z,1018.45
2022-12-27T11:17:16.303Z,1018.41
2022-12-27T11:18:16.296Z,1018.47
2022-12-27T11:19:16.280Z,1018.41
2022-12-27T11:20:16.294Z,1018.42
2022-12-27T11:21:24.047Z,1018.45
2022-12-27T11:22:16.252Z,1018.47
2022-12-27T11:23:16.279Z,1018.46
2022-12-27T11:24:16.229Z,1018.45
2022-12-27T11:25:16.217Z,1018.52
2022-12-27T11:26:16.200Z,1018.48
2022-12-27T11:27:16.193Z,1018.58
2022-12-27T11:28:16.188Z,1018.54
2022-12-27T11:29:16.172Z,1018.53
2022-12-27T11:30:16.155Z,1018.54
2022-12-27T11:31:16.271Z,1018.50
2022-12-27T11:32:16.138Z,1018.50
2022-12-27T11:33:19.668Z,1018.46
2022-12-27T11:34:16.125Z,1018.39
2022-12-27T11:35:16.107Z,1018.47
2022-12-27T11:36:16.091Z,1018.48
2022-12-27T11:37:16.084Z,1018.48
2022-12-27T11:38:16.085Z,1018.49
2022-12-27T11:39:16.061Z,1018.46
2022-12-27T11:40:16.249Z,1018.48
2022-12-27T11:41:16.043Z,1018.42
2022-12-27T11:42:16.027Z,1018.42
2022-12-27T11:43:16.028Z,1018.47
2022-12-27T11:44:16.001Z,1018.44
2022-12-27T11:45:16.000Z,1018.44
2022-12-27T11:46:16.003Z,1018.46
2022-12-27T11:47:16.005Z,1018.51
2022-12-27T11:48:15.965Z,1018.46
2022-12-27T11:49:15.952Z,1018.49
2022-12-27T11:50:15.936Z,1018.46
2022-12-27T11:51:15.934Z,1018.52
2022-12-27T11:52:15.925Z,1018.53
2022-12-27T11:53:15.923Z,1018.42
2022-12-27T11:54:15.897Z,1018.55
2022-12-27T11:55:15.887Z,1018.52
2022-12-27T11:56:15.873Z,1018.48
2022-12-27T11:57:15.869Z,1018.52
2022-12-27T11:58:15.946Z,1018.48
2022-12-27T11:59:15.840Z,1018.46
2022-12-27T12:00:15.824Z,1018.43
2022-12-27T12:01:15.913Z,1018.44
2022-12-27T12:02:15.942Z,1018.43
2022-12-27T12:03:15.848Z,1018.47
2022-12-27T12:04:15.801Z,1018.42
2022-12-27T12:05:15.777Z,1018.41
2022-12-27T12:06:15.777Z,1018.43
2022-12-27T12:07:15.757Z,1018.39
2022-12-27T12:08:15.747Z,1018.42